Time;durP1;ratioP1;P1;durP2;ratioP2;P2;SDS_P1;SDS_P2;PMS_P1;PMS_P2;Temp;Humidity;BMP_temperature;BMP_pressure;BME280_temperature;BME280_humidity;BME280_pressure;Samples;Min_cycle;Max_cycle;Signal;HPM_P1;HPM_P2
2021/05/07 00:01:04;;;;;;;15.20;13.60;;;6.20;99.90;;;;;;4917948;29;20409;-70
2021/05/07 00:03:29;;;;;;;14.90;12.80;;;6.30;99.90;;;;;;4918082;29;20476;-70
2021/05/07 00:05:56;;;;;;;15.43;12.80;;;6.40;99.90;;;;;;4918043;29;20531;-69
2021/05/07 00:08:32;;;;;;;16.23;12.53;;;6.50;99.90;;;;;;4918803;29;20178;-70
2021/05/07 00:11:00;;;;;;;16.40;12.93;;;6.50;99.90;;;;;;4917552;29;20931;-70
2021/05/07 00:13:26;;;;;;;14.17;12.67;;;6.50;99.90;;;;;;4917801;29;20415;-70
2021/05/07 00:15:52;;;;;;;19.77;14.20;;;6.50;99.90;;;;;;4931777;29;20478;-70
2021/05/07 00:18:17;;;;;;;15.27;12.93;;;6.50;99.90;;;;;;4917601;29;20768;-70
2021/05/07 00:20:43;;;;;;;16.83;13.20;;;6.50;99.90;;;;;;4918279;29;20202;-70
2021/05/07 00:23:09;;;;;;;18.73;14.40;;;6.50;99.90;;;;;;4917654;29;20572;-69
2021/05/07 00:25:35;;;;;;;17.00;13.30;;;6.60;99.90;;;;;;4917301;29;20830;-70
2021/05/07 00:28:06;;;;;;;16.70;13.87;;;6.70;99.90;;;;;;4917369;29;20211;-70
2021/05/07 00:30:32;;;;;;;17.17;13.20;;;6.70;99.90;;;;;;4918468;29;20528;-70
2021/05/07 00:32:57;;;;;;;17.77;14.57;;;6.70;99.90;;;;;;4916790;29;20423;-70
2021/05/07 00:35:23;;;;;;;15.67;13.43;;;6.60;99.90;;;;;;4917437;29;20458;-70
2021/05/07 00:37:50;;;;;;;17.03;13.73;;;6.60;99.90;;;;;;4917418;29;20640;-70
2021/05/07 00:40:16;;;;;;;17.47;13.37;;;6.60;99.90;;;;;;4919114;29;20780;-70
2021/05/07 00:42:42;;;;;;;16.10;13.20;;;6.60;99.90;;;;;;4931783;29;20493;-70
2021/05/07 00:45:10;;;;;;;15.60;13.70;;;6.60;99.90;;;;;;4917849;29;20434;-70
2021/05/07 00:47:40;;;;;;;16.13;12.87;;;6.50;99.90;;;;;;4917154;29;20446;-70
2021/05/07 00:50:06;;;;;;;14.10;11.50;;;6.60;99.90;;;;;;4917507;29;20411;-70
2021/05/07 00:52:37;;;;;;;14.80;12.27;;;6.70;99.90;;;;;;4932842;29;20451;-69
2021/05/07 00:55:04;;;;;;;14.17;11.03;;;6.70;99.90;;;;;;4919378;29;20496;-70
2021/05/07 00:57:31;;;;;;;15.43;12.00;;;6.70;99.90;;;;;;4931608;29;20418;-69
2021/05/07 00:59:57;;;;;;;13.40;10.57;;;6.70;99.90;;;;;;4925747;29;20419;-70
2021/05/07 01:02:22;;;;;;;12.87;10.17;;;6.70;99.90;;;;;;4936343;29;20462;-70
2021/05/07 01:04:48;;;;;;;14.60;11.10;;;6.80;99.90;;;;;;4936222;29;20205;-70
2021/05/07 01:07:13;;;;;;;13.77;11.17;;;6.80;99.90;;;;;;4936452;29;20170;-70
2021/05/07 01:09:40;;;;;;;12.63;11.33;;;6.80;99.90;;;;;;4935194;29;20185;-70
2021/05/07 01:12:06;;;;;;;15.20;12.37;;;6.70;99.90;;;;;;4936212;29;20644;-70
2021/05/07 01:14:32;;;;;;;15.90;11.87;;;6.70;99.90;;;;;;4951178;29;20449;-70
2021/05/07 01:16:57;;;;;;;15.53;12.60;;;6.80;99.90;;;;;;4936471;29;20430;-70
2021/05/07 01:19:23;;;;;;;15.60;12.53;;;6.90;99.90;;;;;;4935274;29;20249;-70
2021/05/07 01:21:48;;;;;;;14.10;12.60;;;7.00;99.90;;;;;;4936105;29;20182;-70
2021/05/07 01:24:14;;;;;;;17.67;14.80;;;7.00;99.90;;;;;;4950196;29;20297;-70
2021/05/07 01:26:43;;;;;;;19.47;15.03;;;7.00;99.90;;;;;;4936399;29;20264;-70
2021/05/07 01:32:30;;;;;;;15.90;13.67;;;7.00;99.90;;;;;;4928226;29;20505;-70
2021/05/07 01:34:56;;;;;;;20.77;15.30;;;7.10;99.90;;;;;;4935671;29;20520;-70
2021/05/07 01:37:21;;;;;;;15.43;13.70;;;7.00;99.90;;;;;;4935082;29;20240;-70
2021/05/07 01:39:47;;;;;;;18.47;15.30;;;7.00;99.90;;;;;;4932489;29;20186;-70
2021/05/07 01:42:12;;;;;;;18.03;15.67;;;7.00;99.90;;;;;;4916963;29;20657;-69
2021/05/07 01:44:38;;;;;;;16.93;13.90;;;7.10;99.90;;;;;;4917592;29;20206;-70
2021/05/07 01:47:03;;;;;;;21.27;15.77;;;7.20;99.90;;;;;;4920420;29;20167;-70
2021/05/07 01:49:29;;;;;;;18.63;16.10;;;7.20;99.90;;;;;;4920734;29;20200;-69
2021/05/07 01:51:54;;;;;;;17.77;14.87;;;7.00;99.90;;;;;;4936173;29;20195;-70
2021/05/07 01:54:20;;;;;;;19.90;15.50;;;7.00;99.90;;;;;;4930406;29;20206;-70
2021/05/07 01:56:45;;;;;;;19.07;15.23;;;6.90;99.90;;;;;;4939003;29;20248;-70
2021/05/07 01:59:11;;;;;;;22.43;18.87;;;6.90;99.90;;;;;;4939432;29;20185;-70
2021/05/07 02:01:36;;;;;;;20.93;17.73;;;6.90;99.90;;;;;;4931316;29;20186;-69
2021/05/07 02:04:02;;;;;;;17.90;15.87;;;6.90;99.90;;;;;;4919453;29;20246;-69
2021/05/07 02:06:27;;;;;;;19.07;15.33;;;6.90;99.90;;;;;;4919990;29;20175;-69
2021/05/07 02:08:53;;;;;;;21.47;15.90;;;6.90;99.90;;;;;;4934543;29;20175;-69
2021/05/07 02:11:18;;;;;;;21.83;17.87;;;7.00;99.90;;;;;;4921167;29;20179;-70
2021/05/07 02:13:44;;;;;;;18.90;14.97;;;7.10;99.90;;;;;;4920182;29;20183;-69
2021/05/07 02:16:11;;;;;;;20.80;16.43;;;7.10;99.90;;;;;;4919555;29;20217;-70
2021/05/07 02:18:36;;;;;;;21.73;17.10;;;7.10;99.90;;;;;;4920320;29;20625;-70
2021/05/07 02:21:02;;;;;;;20.73;16.03;;;7.20;99.90;;;;;;4920723;29;20418;-69
2021/05/07 02:23:27;;;;;;;19.60;16.97;;;7.20;99.90;;;;;;4922132;29;20252;-69
2021/05/07 02:25:54;;;;;;;20.30;15.93;;;7.30;99.90;;;;;;4919645;29;20230;-69
2021/05/07 02:28:20;;;;;;;19.23;15.23;;;7.30;99.90;;;;;;4919530;29;20258;-69
2021/05/07 02:30:45;;;;;;;19.63;16.30;;;7.30;99.90;;;;;;4919961;29;20511;-69
2021/05/07 02:33:11;;;;;;;18.07;14.90;;;7.40;99.90;;;;;;4920761;29;20238;-69
2021/05/07 02:35:36;;;;;;;21.80;16.93;;;7.40;99.90;;;;;;4919444;29;20298;-70
2021/05/07 02:38:02;;;;;;;21.03;16.90;;;7.40;99.90;;;;;;4919699;29;20206;-69
2021/05/07 02:40:28;;;;;;;21.53;16.30;;;7.40;99.90;;;;;;4919314;29;20172;-69
2021/05/07 02:42:53;;;;;;;22.50;16.77;;;7.40;99.90;;;;;;4919319;29;20237;-69
2021/05/07 02:45:19;;;;;;;22.27;17.40;;;7.30;99.90;;;;;;4921323;29;20199;-69
2021/05/07 02:47:44;;;;;;;22.20;17.27;;;7.20;99.90;;;;;;4921106;29;20629;-69
2021/05/07 02:50:11;;;;;;;23.90;18.87;;;7.10;99.90;;;;;;4919891;29;20610;-69
2021/05/07 02:52:37;;;;;;;23.50;17.37;;;7.20;99.90;;;;;;4933666;29;20777;-71
2021/05/07 02:55:04;;;;;;;21.70;17.53;;;7.20;99.90;;;;;;4920582;29;20525;-70
2021/05/07 02:57:29;;;;;;;21.33;17.30;;;7.20;99.90;;;;;;4917964;29;20482;-70
2021/05/07 02:59:55;;;;;;;19.77;17.33;;;7.30;99.90;;;;;;4919149;29;20888;-70
2021/05/07 03:02:20;;;;;;;20.80;17.67;;;7.30;99.90;;;;;;4918842;29;20648;-70
2021/05/07 03:04:46;;;;;;;22.57;17.97;;;7.40;99.90;;;;;;4919817;29;20656;-70
2021/05/07 03:07:11;;;;;;;22.00;18.17;;;7.40;99.90;;;;;;4919416;29;20175;-70
2021/05/07 03:09:37;;;;;;;21.93;17.50;;;7.40;99.90;;;;;;4918455;29;20640;-69
2021/05/07 03:12:03;;;;;;;24.00;17.40;;;7.40;99.90;;;;;;4918780;29;20179;-70
2021/05/07 03:14:28;;;;;;;23.63;16.30;;;7.20;99.90;;;;;;4918715;29;20207;-70
2021/05/07 03:16:54;;;;;;;21.27;16.50;;;7.20;99.90;;;;;;4919758;29;20438;-69
2021/05/07 03:19:19;;;;;;;22.60;17.73;;;7.20;99.90;;;;;;4918849;29;20226;-70
2021/05/07 03:21:45;;;;;;;18.97;16.83;;;7.10;99.90;;;;;;4918624;29;20179;-70
2021/05/07 03:24:13;;;;;;;24.90;18.27;;;7.00;99.90;;;;;;4918199;29;20210;-69
2021/05/07 03:26:39;;;;;;;25.87;18.10;;;6.80;99.90;;;;;;4920509;29;20421;-69
2021/05/07 03:29:05;;;;;;;22.97;18.30;;;6.80;99.90;;;;;;4920116;29;20419;-69
2021/05/07 03:31:32;;;;;;;26.70;19.60;;;6.90;99.90;;;;;;4920158;29;20454;-70
2021/05/07 03:33:58;;;;;;;23.20;19.70;;;7.00;99.90;;;;;;4919769;29;20190;-69
2021/05/07 03:36:23;;;;;;;23.87;19.47;;;7.00;99.90;;;;;;4918385;29;20407;-69
2021/05/07 03:38:49;;;;;;;24.40;19.00;;;7.00;99.90;;;;;;4919127;29;20510;-69
2021/05/07 03:41:14;;;;;;;25.80;18.33;;;6.90;99.90;;;;;;4918415;29;20222;-70
2021/05/07 03:43:40;;;;;;;23.23;17.53;;;6.60;99.90;;;;;;4918024;29;20278;-69
2021/05/07 03:46:05;;;;;;;22.97;18.50;;;6.40;99.90;;;;;;4918091;29;20561;-69
2021/05/07 03:48:31;;;;;;;26.33;19.23;;;6.30;99.90;;;;;;4919045;29;20685;-69
2021/05/07 03:50:57;;;;;;;27.50;19.17;;;6.20;99.90;;;;;;4917942;29;20191;-70
2021/05/07 03:53:23;;;;;;;27.43;18.80;;;6.30;99.90;;;;;;4917802;29;20510;-69
2021/05/07 03:55:49;;;;;;;26.73;20.43;;;6.20;99.90;;;;;;4917768;29;20487;-69
2021/05/07 03:58:15;;;;;;;29.00;20.00;;;6.20;99.90;;;;;;4919134;29;20187;-69
2021/05/07 04:00:41;;;;;;;28.60;19.63;;;6.30;99.90;;;;;;4923816;29;20444;-70
2021/05/07 04:03:07;;;;;;;26.50;19.50;;;6.50;99.90;;;;;;4936698;29;20209;-69
2021/05/07 04:05:34;;;;;;;31.33;21.00;;;6.60;99.90;;;;;;4936657;29;20426;-70
2021/05/07 04:10:30;;;;;;;29.30;21.33;;;6.70;99.90;;;;;;4921646;29;20757;-70
2021/05/07 04:15:22;;;;;;;31.20;22.40;;;6.80;99.90;;;;;;4917087;29;20541;-70
2021/05/07 04:17:47;;;;;;;33.20;22.07;;;6.90;99.90;;;;;;4918010;29;20183;-69
2021/05/07 04:20:13;;;;;;;29.97;21.43;;;6.80;99.90;;;;;;4918427;29;20808;-70
2021/05/07 04:22:39;;;;;;;34.63;23.43;;;6.70;99.90;;;;;;4917538;29;20270;-70
2021/05/07 04:25:09;;;;;;;31.23;22.30;;;6.70;99.90;;;;;;4917547;29;20518;-69
2021/05/07 04:27:34;;;;;;;33.60;23.90;;;6.70;99.90;;;;;;4917862;29;20175;-70
2021/05/07 04:30:01;;;;;;;31.23;21.77;;;6.70;99.90;;;;;;4918443;29;20411;-69
2021/05/07 04:32:26;;;;;;;28.50;21.00;;;6.70;99.90;;;;;;4917348;29;20197;-69
2021/05/07 04:34:52;;;;;;;30.27;21.40;;;6.80;99.90;;;;;;4917301;29;20434;-69
2021/05/07 04:37:17;;;;;;;28.40;22.37;;;6.70;99.90;;;;;;4917105;29;20212;-69
2021/05/07 04:39:43;;;;;;;29.37;20.77;;;6.50;99.90;;;;;;4917339;29;20175;-69
2021/05/07 04:42:08;;;;;;;34.77;23.80;;;6.20;99.90;;;;;;4932738;29;20183;-70
2021/05/07 04:44:34;;;;;;;35.03;22.93;;;6.00;99.90;;;;;;4916864;29;20571;-70
2021/05/07 04:47:00;;;;;;;32.60;22.93;;;6.00;99.90;;;;;;4917273;29;20194;-70
2021/05/07 04:49:26;;;;;;;32.57;23.07;;;6.10;99.90;;;;;;4917338;29;20182;-69
2021/05/07 04:51:52;;;;;;;31.53;22.50;;;6.20;99.90;;;;;;4918454;29;20190;-69
2021/05/07 04:54:18;;;;;;;28.40;20.23;;;6.30;99.90;;;;;;4916786;29;20935;-69
2021/05/07 04:56:44;;;;;;;28.90;20.80;;;6.40;99.90;;;;;;4917849;29;20430;-69
2021/05/07 04:59:09;;;;;;;27.40;20.03;;;6.50;99.90;;;;;;4920190;29;20211;-69
2021/05/07 05:01:35;;;;;;;28.60;20.47;;;6.60;99.90;;;;;;4934831;29;20318;-70
2021/05/07 05:04:00;;;;;;;27.00;19.83;;;6.70;99.90;;;;;;4930975;29;20213;-70
2021/05/07 05:06:26;;;;;;;26.77;20.67;;;6.80;99.90;;;;;;4935225;29;20189;-68
2021/05/07 05:08:51;;;;;;;25.63;19.60;;;6.90;99.90;;;;;;4935444;29;20194;-69
2021/05/07 05:11:17;;;;;;;27.00;20.90;;;7.00;99.90;;;;;;4935470;29;20286;-68
2021/05/07 05:13:42;;;;;;;27.43;20.33;;;7.10;99.90;;;;;;4934466;29;20713;-68
2021/05/07 05:16:08;;;;;;;27.27;19.60;;;7.20;99.90;;;;;;4935675;29;20225;-68
2021/05/07 05:18:35;;;;;;;29.53;20.83;;;7.20;99.90;;;;;;4931945;29;20210;-69
2021/05/07 05:21:06;;;;;;;27.50;19.97;;;7.00;99.90;;;;;;4919645;29;20522;-70
2021/05/07 05:23:32;;;;;;;28.33;21.10;;;7.00;99.90;;;;;;4930045;29;20552;-70
2021/05/07 05:25:58;;;;;;;27.07;19.47;;;7.00;99.90;;;;;;4940181;29;20480;-69
2021/05/07 05:28:25;;;;;;;26.67;19.83;;;7.10;99.90;;;;;;4940705;29;20178;-68
2021/05/07 05:30:51;;;;;;;21.20;17.53;;;7.20;99.90;;;;;;4940436;29;20525;-69
2021/05/07 05:33:17;;;;;;;21.73;17.60;;;7.20;99.90;;;;;;4939604;29;20858;-70
2021/05/07 05:35:44;;;;;;;20.73;17.17;;;7.20;99.90;;;;;;4942918;29;20481;-69
2021/05/07 05:38:09;;;;;;;24.20;18.60;;;7.30;99.90;;;;;;4929347;29;20308;-69
2021/05/07 05:40:35;;;;;;;23.30;17.43;;;7.40;99.90;;;;;;4924312;29;20861;-68
2021/05/07 05:43:03;;;;;;;23.37;18.17;;;7.50;99.90;;;;;;4927685;29;20217;-68
2021/05/07 05:45:29;;;;;;;21.97;17.27;;;7.60;99.90;;;;;;4936750;29;20285;-70
2021/05/07 05:48:14;;;;;;;21.20;15.63;;;7.40;99.90;;;;;;4928333;29;20529;-69
2021/05/07 05:50:48;;;;;;;21.80;16.03;;;7.40;99.90;;;;;;4936825;29;20264;-69
2021/05/07 05:53:14;;;;;;;22.63;16.60;;;7.30;99.90;;;;;;4926576;29;21030;-69
2021/05/07 05:55:40;;;;;;;21.43;17.10;;;7.50;99.90;;;;;;4926024;29;20504;-69
2021/05/07 05:58:06;;;;;;;22.10;17.70;;;7.50;99.90;;;;;;4935836;29;20469;-69
2021/05/07 06:00:33;;;;;;;22.43;18.00;;;7.60;99.90;;;;;;4940675;29;20242;-69
2021/05/07 06:02:58;;;;;;;24.93;18.10;;;7.60;99.90;;;;;;4935951;29;21325;-69
2021/05/07 06:05:24;;;;;;;21.40;18.13;;;7.60;99.90;;;;;;4923289;29;20438;-68
2021/05/07 06:07:50;;;;;;;28.43;18.83;;;7.70;99.90;;;;;;4924617;29;20185;-69
2021/05/07 06:10:17;;;;;;;23.63;18.90;;;7.60;99.90;;;;;;4919738;29;20429;-69
2021/05/07 06:12:44;;;;;;;26.77;19.90;;;7.70;99.90;;;;;;4935241;29;20178;-69
2021/05/07 06:15:10;;;;;;;24.20;17.80;;;7.80;99.90;;;;;;4924296;29;21046;-70
2021/05/07 06:17:36;;;;;;;18.43;15.20;;;7.80;99.90;;;;;;4930356;29;20424;-69
2021/05/07 06:20:07;;;;;;;15.53;13.30;;;7.70;99.90;;;;;;4935372;29;20469;-69
2021/05/07 06:22:34;;;;;;;20.47;14.03;;;7.30;99.90;;;;;;4938144;29;20474;-69
2021/05/07 06:25:00;;;;;;;17.20;13.40;;;7.10;99.90;;;;;;4928815;29;20443;-70
2021/05/07 06:27:26;;;;;;;17.77;13.23;;;7.20;99.90;;;;;;4931552;29;20430;-69
2021/05/07 06:29:52;;;;;;;20.63;14.47;;;7.20;99.90;;;;;;4928595;29;20946;-69
2021/05/07 06:32:18;;;;;;;13.27;11.30;;;7.10;99.90;;;;;;4933321;29;20453;-68
2021/05/07 06:34:44;;;;;;;10.60;9.00;;;7.10;99.90;;;;;;4934709;29;20702;-68
2021/05/07 06:37:09;;;;;;;10.63;8.83;;;6.80;99.90;;;;;;4933698;29;20438;-69
2021/05/07 06:39:36;;;;;;;11.90;8.90;;;6.40;99.90;;;;;;4934928;29;20238;-69
2021/05/07 06:42:02;;;;;;;9.20;8.17;;;6.00;99.90;;;;;;4933778;29;20206;-69
2021/05/07 06:44:28;;;;;;;12.50;9.57;;;5.80;99.90;;;;;;4934188;29;20470;-69
2021/05/07 06:46:54;;;;;;;13.00;10.73;;;5.70;99.90;;;;;;4932843;29;20485;-68
2021/05/07 06:49:24;;;;;;;10.07;8.37;;;5.50;99.90;;;;;;4927430;29;20798;-68
2021/05/07 06:51:51;;;;;;;10.20;8.30;;;5.40;99.90;;;;;;4934067;29;20569;-69
2021/05/07 06:54:16;;;;;;;11.83;9.90;;;5.50;99.90;;;;;;4934594;29;20434;-69
2021/05/07 06:56:42;;;;;;;11.33;8.87;;;5.60;99.90;;;;;;4934679;29;20418;-68
2021/05/07 06:59:08;;;;;;;10.83;9.37;;;5.60;99.90;;;;;;4930247;29;20244;-69
2021/05/07 07:01:34;;;;;;;10.67;8.20;;;5.70;99.90;;;;;;4934655;29;20202;-68
2021/05/07 07:04:00;;;;;;;8.20;7.40;;;5.70;99.90;;;;;;4934330;29;20265;-69
2021/05/07 07:06:26;;;;;;;9.03;7.80;;;5.60;99.90;;;;;;4934246;29;21180;-69
2021/05/07 07:08:51;;;;;;;9.43;7.40;;;5.40;99.90;;;;;;4923309;29;20268;-69
2021/05/07 07:11:17;;;;;;;9.10;8.20;;;5.40;99.90;;;;;;4920501;29;20192;-69
2021/05/07 07:13:43;;;;;;;13.07;9.37;;;5.40;99.90;;;;;;4917478;29;20184;-69
2021/05/07 07:16:09;;;;;;;12.43;9.80;;;5.30;99.90;;;;;;4933026;29;20473;-69
2021/05/07 07:18:35;;;;;;;11.83;9.53;;;5.30;99.90;;;;;;4931584;29;20174;-68
2021/05/07 07:21:01;;;;;;;12.90;10.07;;;5.20;99.90;;;;;;4924742;29;20497;-69
2021/05/07 07:23:27;;;;;;;12.77;10.00;;;5.30;99.90;;;;;;4934009;29;20294;-69
2021/05/07 07:25:53;;;;;;;11.77;10.57;;;5.30;99.90;;;;;;4933820;29;20785;-69
2021/05/07 07:28:18;;;;;;;10.13;9.10;;;5.40;99.90;;;;;;4933860;29;20175;-69
2021/05/07 07:30:45;;;;;;;10.10;9.00;;;5.20;99.90;;;;;;4925915;29;20423;-69
2021/05/07 07:33:12;;;;;;;12.30;8.70;;;5.00;99.90;;;;;;4925426;29;20222;-69
2021/05/07 07:35:38;;;;;;;10.63;8.53;;;4.80;99.90;;;;;;4928202;29;20782;-69
2021/05/07 07:38:04;;;;;;;9.57;8.50;;;4.60;99.90;;;;;;4931811;29;20458;-68
2021/05/07 07:40:30;;;;;;;8.87;7.97;;;4.60;99.90;;;;;;4932517;29;20182;-68
2021/05/07 07:42:55;;;;;;;9.03;8.10;;;4.40;99.90;;;;;;4933069;29;20470;-68
2021/05/07 07:45:21;;;;;;;8.53;7.43;;;4.50;99.90;;;;;;4933926;29;20198;-69
2021/05/07 07:47:46;;;;;;;9.27;8.37;;;4.50;99.90;;;;;;4948267;29;20205;-69
2021/05/07 07:50:12;;;;;;;10.57;8.37;;;4.60;99.90;;;;;;4931858;29;20783;-69
2021/05/07 07:52:38;;;;;;;10.30;8.57;;;4.80;99.90;;;;;;4925674;29;20719;-69
2021/05/07 07:55:05;;;;;;;9.77;8.40;;;5.10;99.90;;;;;;4930009;29;20598;-69
2021/05/07 07:57:31;;;;;;;7.87;7.07;;;5.30;99.90;;;;;;4931346;29;20497;-69
2021/05/07 07:59:57;;;;;;;7.43;6.73;;;5.40;99.90;;;;;;4933166;29;20447;-69
2021/05/07 08:02:25;;;;;;;9.73;8.73;;;5.40;99.90;;;;;;4928773;29;20189;-69
2021/05/07 08:04:51;;;;;;;9.53;8.53;;;5.60;99.90;;;;;;4933700;29;20292;-69
2021/05/07 08:07:17;;;;;;;8.77;7.87;;;5.60;99.90;;;;;;4933344;29;20521;-69
2021/05/07 08:09:42;;;;;;;9.40;7.33;;;5.80;99.90;;;;;;4943215;29;20426;-69
2021/05/07 08:12:08;;;;;;;8.77;7.87;;;5.90;99.90;;;;;;4916799;29;20183;-69
2021/05/07 08:14:34;;;;;;;9.10;8.17;;;5.70;99.90;;;;;;4933146;29;20206;-69
2021/05/07 08:17:00;;;;;;;8.10;7.30;;;5.60;99.90;;;;;;4931241;29;20827;-69
2021/05/07 08:19:26;;;;;;;8.70;7.73;;;5.70;99.90;;;;;;4915699;29;20659;-68
2021/05/07 08:21:52;;;;;;;7.93;7.23;;;5.80;99.90;;;;;;4929070;29;20194;-69
2021/05/07 08:24:18;;;;;;;8.50;7.60;;;5.90;99.90;;;;;;4923006;29;20569;-69
2021/05/07 08:26:43;;;;;;;9.57;8.63;;;6.00;99.90;;;;;;4932793;29;20514;-69
2021/05/07 08:29:09;;;;;;;10.40;8.50;;;6.20;99.90;;;;;;4932835;29;20225;-69
2021/05/07 08:31:35;;;;;;;9.93;7.97;;;6.10;99.90;;;;;;4933215;29;20198;-69
2021/05/07 08:34:00;;;;;;;8.60;7.70;;;6.20;99.90;;;;;;4928316;29;20187;-69
2021/05/07 08:36:26;;;;;;;8.00;7.30;;;6.40;99.90;;;;;;4933593;29;20213;-69
2021/05/07 08:38:52;;;;;;;8.50;7.63;;;6.40;99.90;;;;;;4933355;29;20179;-69
2021/05/07 08:41:18;;;;;;;9.20;8.20;;;6.30;99.90;;;;;;4933611;29;20268;-69
2021/05/07 08:43:44;;;;;;;9.43;8.37;;;6.30;99.90;;;;;;4932838;29;20228;-69
2021/05/07 08:46:09;;;;;;;9.60;8.70;;;6.50;99.90;;;;;;4932354;29;20445;-69
2021/05/07 08:48:38;;;;;;;9.43;8.53;;;6.80;99.90;;;;;;4934109;29;20426;-69
2021/05/07 08:51:03;;;;;;;9.57;8.40;;;6.70;99.90;;;;;;4935846;29;20601;-69
2021/05/07 08:53:30;;;;;;;10.13;9.13;;;6.70;99.90;;;;;;4931448;29;20450;-69
2021/05/07 08:55:55;;;;;;;10.43;9.53;;;6.80;99.90;;;;;;4927383;29;20699;-69
2021/05/07 08:58:21;;;;;;;10.37;8.20;;;7.00;99.90;;;;;;4932980;29;20456;-69
2021/05/07 09:00:47;;;;;;;9.50;8.63;;;7.30;99.90;;;;;;4935051;29;20714;-69
2021/05/07 09:03:14;;;;;;;9.77;8.57;;;7.40;99.90;;;;;;4927663;29;20684;-70
2021/05/07 09:05:40;;;;;;;9.37;8.57;;;7.70;99.90;;;;;;4934003;29;20443;-69
2021/05/07 09:08:07;;;;;;;8.60;7.90;;;7.90;99.90;;;;;;4931376;29;20609;-70
2021/05/07 09:10:41;;;;;;;9.00;8.10;;;8.00;99.90;;;;;;4930441;29;20312;-70
2021/05/07 09:13:14;;;;;;;7.60;6.90;;;8.30;99.90;;;;;;4948169;29;20452;-70
2021/05/07 09:15:44;;;;;;;8.67;7.97;;;8.30;99.90;;;;;;4935780;29;20453;-70
2021/05/07 09:18:16;;;;;;;7.87;7.27;;;8.20;99.90;;;;;;4933297;29;21543;-70
2021/05/07 09:20:49;;;;;;;7.37;6.67;;;8.30;99.90;;;;;;4934052;29;20429;-70
2021/05/07 09:23:16;;;;;;;7.00;6.40;;;8.50;99.90;;;;;;4934766;29;20474;-70
2021/05/07 09:25:58;;;;;;;5.40;5.00;;;8.60;99.90;;;;;;4937199;29;20438;-70
2021/05/07 09:28:23;;;;;;;6.60;6.00;;;8.60;99.90;;;;;;4922158;29;20929;-69
2021/05/07 09:30:49;;;;;;;6.17;5.67;;;8.20;99.90;;;;;;4931478;29;20457;-69
2021/05/07 09:33:16;;;;;;;6.23;5.50;;;8.30;99.90;;;;;;4932126;29;20188;-70
2021/05/07 09:35:43;;;;;;;5.70;5.20;;;8.10;99.90;;;;;;4932320;29;20241;-69
2021/05/07 09:38:12;;;;;;;5.70;5.17;;;7.60;99.90;;;;;;4944808;29;20434;-69
2021/05/07 09:40:39;;;;;;;5.97;5.47;;;7.70;99.90;;;;;;4943337;29;20430;-69
2021/05/07 09:43:18;;;;;;;5.60;5.10;;;7.90;99.90;;;;;;4932112;29;20552;-69
2021/05/07 09:45:47;;;;;;;6.87;5.30;;;7.90;99.90;;;;;;4931797;29;20437;-70
2021/05/07 09:48:21;;;;;;;5.53;5.03;;;8.20;99.90;;;;;;4929622;29;20433;-70
2021/05/07 09:50:48;;;;;;;5.67;5.10;;;8.60;99.90;;;;;;4931959;29;20422;-69
2021/05/07 09:53:21;;;;;;;5.87;4.83;;;8.90;99.90;;;;;;4931546;29;20434;-70
2021/05/07 09:55:49;;;;;;;5.67;5.10;;;8.60;99.90;;;;;;4931911;29;20533;-70
2021/05/07 09:58:15;;;;;;;5.10;4.57;;;8.70;99.90;;;;;;4931988;29;20426;-70
2021/05/07 10:00:41;;;;;;;4.03;3.63;;;8.80;99.90;;;;;;4925903;29;20430;-70
2021/05/07 10:03:07;;;;;;;4.60;3.87;;;8.80;99.90;;;;;;4931805;29;20473;-70
2021/05/07 10:05:35;;;;;;;3.77;3.47;;;8.80;99.90;;;;;;4932897;29;20433;-69
2021/05/07 10:08:00;;;;;;;4.27;3.80;;;8.80;99.90;;;;;;4924152;29;20450;-69
2021/05/07 10:10:28;;;;;;;3.87;3.50;;;9.00;99.90;;;;;;4927913;29;20545;-69
2021/05/07 10:12:57;;;;;;;4.03;3.70;;;9.20;99.30;;;;;;4927651;29;20275;-70
2021/05/07 10:15:28;;;;;;;4.23;3.60;;;9.40;99.00;;;;;;4927834;29;20488;-70
2021/05/07 10:17:53;;;;;;;3.83;3.53;;;9.20;98.10;;;;;;4935021;29;20820;-69
2021/05/07 10:20:27;;;;;;;4.33;3.93;;;9.20;98.40;;;;;;4933973;29;20482;-69
2021/05/07 10:22:53;;;;;;;6.73;6.10;;;9.20;98.10;;;;;;4935001;29;20210;-70
2021/05/07 10:25:20;;;;;;;8.33;7.43;;;8.80;98.50;;;;;;4935043;29;20784;-71
2021/05/07 10:27:47;;;;;;;9.70;8.80;;;8.70;98.90;;;;;;4934908;29;20237;-70
2021/05/07 10:30:31;;;;;;;8.40;7.60;;;8.40;98.90;;;;;;4934684;29;20501;-70
2021/05/07 10:32:59;;;;;;;7.53;6.70;;;8.30;98.20;;;;;;4933013;29;20823;-70
2021/05/07 10:35:30;;;;;;;6.97;6.27;;;8.20;98.00;;;;;;4916936;29;20439;-70
2021/05/07 10:38:08;;;;;;;7.30;6.70;;;8.30;97.70;;;;;;4921051;29;20426;-70
2021/05/07 10:40:34;;;;;;;9.13;7.40;;;8.40;97.10;;;;;;4937734;29;20413;-71
2021/05/07 10:43:00;;;;;;;7.13;6.43;;;8.40;97.90;;;;;;4937398;29;20958;-70
2021/05/07 10:45:43;;;;;;;7.83;7.13;;;8.50;97.30;;;;;;4937783;28;20284;-70
2021/05/07 10:48:25;;;;;;;6.90;6.20;;;8.50;97.50;;;;;;4950853;29;20174;-70
2021/05/07 10:50:58;;;;;;;6.30;5.70;;;8.70;96.90;;;;;;4938070;29;20759;-70
2021/05/07 10:53:25;;;;;;;7.00;6.30;;;9.00;96.00;;;;;;4937757;29;20425;-70
2021/05/07 10:55:50;;;;;;;6.73;6.13;;;9.30;94.80;;;;;;4938114;28;20541;-70
2021/05/07 10:58:16;;;;;;;7.90;7.20;;;9.50;95.00;;;;;;4938177;29;20947;-69
2021/05/07 11:00:42;;;;;;;8.60;7.80;;;9.60;95.10;;;;;;4936365;29;20473;-70
2021/05/07 11:03:19;;;;;;;7.40;6.80;;;9.70;95.20;;;;;;4937709;29;20276;-70
2021/05/07 11:05:47;;;;;;;13.33;7.10;;;9.60;95.00;;;;;;4937824;29;20194;-71
2021/05/07 11:08:13;;;;;;;7.60;6.80;;;9.70;95.30;;;;;;4926991;29;20445;-70
2021/05/07 11:10:39;;;;;;;7.00;6.27;;;10.00;94.10;;;;;;4922373;29;20437;-70
2021/05/07 11:13:10;;;;;;;6.10;5.60;;;10.10;93.90;;;;;;4916271;29;20212;-70
2021/05/07 11:15:36;;;;;;;6.40;5.80;;;10.20;94.00;;;;;;4916113;29;20208;-70
2021/05/07 11:18:06;;;;;;;5.67;5.20;;;10.20;93.30;;;;;;4915782;29;20779;-70
2021/05/07 11:20:35;;;;;;;5.70;5.30;;;10.40;92.80;;;;;;4917870;29;20438;-69
2021/05/07 11:23:05;;;;;;;5.70;5.20;;;10.20;92.50;;;;;;4916116;29;20520;-69
2021/05/07 11:25:32;;;;;;;4.67;4.37;;;10.10;93.00;;;;;;4917026;29;21001;-70
2021/05/07 11:28:13;;;;;;;5.17;4.73;;;10.20;93.30;;;;;;4918244;29;20410;-71
2021/05/07 11:30:49;;;;;;;6.57;4.30;;;10.20;93.60;;;;;;4919032;29;20416;-70
2021/05/07 11:33:14;;;;;;;4.80;4.40;;;10.30;93.80;;;;;;4917913;29;20426;-70
2021/05/07 11:35:40;;;;;;;3.87;3.67;;;10.30;94.00;;;;;;4916828;29;20519;-70
2021/05/07 11:38:06;;;;;;;4.17;3.87;;;10.50;94.10;;;;;;4918159;29;20193;-70
2021/05/07 11:40:36;;;;;;;3.90;3.50;;;10.80;94.00;;;;;;4918378;29;20241;-70
2021/05/07 11:43:12;;;;;;;4.10;3.80;;;10.90;93.20;;;;;;4918940;29;21018;-69
2021/05/07 11:45:39;;;;;;;4.27;3.90;;;11.00;92.90;;;;;;4918367;29;20529;-70
2021/05/07 11:48:07;;;;;;;4.23;3.83;;;10.90;92.20;;;;;;4917976;29;20442;-70
2021/05/07 11:50:33;;;;;;;4.27;3.87;;;10.70;92.40;;;;;;4918192;29;20421;-70
2021/05/07 11:52:59;;;;;;;4.30;3.90;;;10.40;92.60;;;;;;4919129;29;20438;-71
2021/05/07 11:55:27;;;;;;;4.53;4.17;;;10.40;93.20;;;;;;4917772;29;20791;-70
2021/05/07 11:57:56;;;;;;;4.20;3.90;;;10.60;93.20;;;;;;4918248;29;20545;-70
2021/05/07 12:00:22;;;;;;;4.80;3.93;;;10.60;93.10;;;;;;4917469;29;20457;-71
2021/05/07 12:03:01;;;;;;;3.30;3.10;;;10.50;92.10;;;;;;4918990;29;20498;-70
2021/05/07 12:05:34;;;;;;;3.73;3.43;;;10.50;92.00;;;;;;4933833;29;20207;-70
2021/05/07 12:08:01;;;;;;;3.57;3.37;;;10.50;90.90;;;;;;4919588;29;20412;-70
2021/05/07 12:10:28;;;;;;;5.10;4.10;;;10.30;91.60;;;;;;4917852;29;20508;-70
2021/05/07 12:12:57;;;;;;;4.10;3.70;;;10.10;91.20;;;;;;4932890;29;20431;-70
2021/05/07 12:15:24;;;;;;;3.87;3.57;;;10.00;91.80;;;;;;4917553;29;20462;-70
2021/05/07 12:17:51;;;;;;;5.90;4.40;;;10.10;92.00;;;;;;4917949;29;20422;-70
2021/05/07 12:20:26;;;;;;;4.77;4.00;;;10.10;91.30;;;;;;4917529;29;20774;-70
2021/05/07 12:22:53;;;;;;;4.27;3.97;;;10.20;91.60;;;;;;4900400;29;20470;-68
2021/05/07 12:25:21;;;;;;;3.80;3.50;;;10.40;91.80;;;;;;4930379;29;21157;-69
2021/05/07 12:27:48;;;;;;;4.47;4.07;;;10.30;91.40;;;;;;4932959;29;20440;-69
2021/05/07 12:30:18;;;;;;;4.07;3.73;;;10.30;91.70;;;;;;4927957;29;20461;-69
2021/05/07 12:33:03;;;;;;;4.30;4.00;;;10.50;91.90;;;;;;4921149;29;20411;-70
2021/05/07 12:35:48;;;;;;;4.30;4.00;;;10.70;91.50;;;;;;4927320;29;20444;-70
2021/05/07 12:38:17;;;;;;;4.30;3.90;;;10.80;91.00;;;;;;4919885;29;20426;-70
2021/05/07 12:40:43;;;;;;;4.23;3.83;;;11.00;90.90;;;;;;4924079;29;20440;-71
2021/05/07 12:43:08;;;;;;;5.23;4.00;;;11.20;90.00;;;;;;4931501;29;20488;-69
2021/05/07 12:45:34;;;;;;;4.57;4.17;;;11.20;89.60;;;;;;4922787;29;20281;-69
2021/05/07 12:47:59;;;;;;;5.10;4.70;;;11.10;88.60;;;;;;4926815;29;20647;-70
2021/05/07 12:50:25;;;;;;;5.07;4.63;;;11.10;88.30;;;;;;4932759;29;20407;-70
2021/05/07 12:52:51;;;;;;;5.00;4.60;;;11.10;87.60;;;;;;4926198;29;20225;-70